sensor_id;sensor_type;location;lat;lon;timestamp;temperature;humidity
8422;DHT22;4248;48.196;10.924;2023-02-08T00:02:15;-4.50;44.30
8422;DHT22;4248;48.196;10.924;2023-02-08T00:04:40;-4.60;44.30
8422;DHT22;4248;48.196;10.924;2023-02-08T00:07:06;-4.70;44.30
8422;DHT22;4248;48.196;10.924;2023-02-08T00:09:32;-4.70;44.40
8422;DHT22;4248;48.196;10.924;2023-02-08T00:11:57;-4.80;44.50
8422;DHT22;4248;48.196;10.924;2023-02-08T00:14:23;-4.80;44.60
8422;DHT22;4248;48.196;10.924;2023-02-08T00:16:48;-4.90;44.60
8422;DHT22;4248;48.196;10.924;2023-02-08T00:19:14;-4.90;44.50
8422;DHT22;4248;48.196;10.924;2023-02-08T00:21:39;-4.90;44.70
8422;DHT22;4248;48.196;10.924;2023-02-08T00:24:05;-5.00;44.70
8422;DHT22;4248;48.196;10.924;2023-02-08T00:26:31;-5.00;44.80
8422;DHT22;4248;48.196;10.924;2023-02-08T00:28:56;-5.00;44.90
8422;DHT22;4248;48.196;10.924;2023-02-08T00:31:22;-5.00;44.90
8422;DHT22;4248;48.196;10.924;2023-02-08T00:33:48;-5.10;45.00
8422;DHT22;4248;48.196;10.924;2023-02-08T00:36:13;-5.00;45.20
8422;DHT22;4248;48.196;10.924;2023-02-08T00:38:39;-5.10;45.00
8422;DHT22;4248;48.196;10.924;2023-02-08T00:41:04;-5.10;45.00
8422;DHT22;4248;48.196;10.924;2023-02-08T00:43:30;-5.10;45.00
8422;DHT22;4248;48.196;10.924;2023-02-08T00:45:57;-5.10;45.10
8422;DHT22;4248;48.196;10.924;2023-02-08T00:48:24;-5.10;45.10
8422;DHT22;4248;48.196;10.924;2023-02-08T00:50:57;-5.10;45.10
8422;DHT22;4248;48.196;10.924;2023-02-08T00:53:23;-5.10;45.10
8422;DHT22;4248;48.196;10.924;2023-02-08T00:55:54;-5.20;45.00
8422;DHT22;4248;48.196;10.924;2023-02-08T00:58:20;-5.20;45.00
8422;DHT22;4248;48.196;10.924;2023-02-08T01:00:46;-5.10;45.00
8422;DHT22;4248;48.196;10.924;2023-02-08T01:03:11;-5.00;45.00
8422;DHT22;4248;48.196;10.924;2023-02-08T01:05:37;-4.90;45.10
8422;DHT22;4248;48.196;10.924;2023-02-08T01:08:03;-4.70;46.30
8422;DHT22;4248;48.196;10.924;2023-02-08T01:10:29;-4.70;45.10
8422;DHT22;4248;48.196;10.924;2023-02-08T01:12:55;-4.60;45.30
8422;DHT22;4248;48.196;10.924;2023-02-08T01:15:20;-4.50;45.40
8422;DHT22;4248;48.196;10.924;2023-02-08T01:17:46;-4.50;45.40
8422;DHT22;4248;48.196;10.924;2023-02-08T01:20:12;-4.50;45.50
8422;DHT22;4248;48.196;10.924;2023-02-08T01:22:37;-4.50;45.50
8422;DHT22;4248;48.196;10.924;2023-02-08T01:25:03;-4.50;45.60
8422;DHT22;4248;48.196;10.924;2023-02-08T01:27:29;-4.60;45.50
8422;DHT22;4248;48.196;10.924;2023-02-08T01:29:54;-4.60;45.60
8422;DHT22;4248;48.196;10.924;2023-02-08T01:32:20;-4.60;45.60
8422;DHT22;4248;48.196;10.924;2023-02-08T01:34:46;-4.50;46.00
8422;DHT22;4248;48.196;10.924;2023-02-08T01:37:12;-4.60;45.90
8422;DHT22;4248;48.196;10.924;2023-02-08T01:39:37;-4.60;45.90
8422;DHT22;4248;48.196;10.924;2023-02-08T01:42:03;-4.60;46.00
8422;DHT22;4248;48.196;10.924;2023-02-08T01:47:25;-4.60;46.10
8422;DHT22;4248;48.196;10.924;2023-02-08T01:49:51;-4.60;46.10
8422;DHT22;4248;48.196;10.924;2023-02-08T01:52:20;-4.60;46.20
8422;DHT22;4248;48.196;10.924;2023-02-08T01:54:56;-4.60;46.10
8422;DHT22;4248;48.196;10.924;2023-02-08T01:57:24;-4.60;46.20
8422;DHT22;4248;48.196;10.924;2023-02-08T01:59:54;-4.60;46.30
8422;DHT22;4248;48.196;10.924;2023-02-08T02:02:22;-4.70;46.20
8422;DHT22;4248;48.196;10.924;2023-02-08T02:04:48;-4.70;46.40
8422;DHT22;4248;48.196;10.924;2023-02-08T02:07:16;-4.70;46.50
8422;DHT22;4248;48.196;10.924;2023-02-08T02:09:46;-4.70;46.60
8422;DHT22;4248;48.196;10.924;2023-02-08T02:12:13;-4.70;46.50
8422;DHT22;4248;48.196;10.924;2023-02-08T02:14:41;-4.70;46.60
8422;DHT22;4248;48.196;10.924;2023-02-08T02:17:10;-4.70;46.70
8422;DHT22;4248;48.196;10.924;2023-02-08T02:33:52;-4.80;47.10
8422;DHT22;4248;48.196;10.924;2023-02-08T02:37:02;-4.80;47.00
8422;DHT22;4248;48.196;10.924;2023-02-08T02:48:11;-4.90;47.10
8422;DHT22;4248;48.196;10.924;2023-02-08T02:53:56;-4.90;47.20
8422;DHT22;4248;48.196;10.924;2023-02-08T02:56:28;-4.90;47.20
8422;DHT22;4248;48.196;10.924;2023-02-08T02:58:58;-4.90;47.30
8422;DHT22;4248;48.196;10.924;2023-02-08T03:01:25;-4.90;47.30
8422;DHT22;4248;48.196;10.924;2023-02-08T03:03:54;-4.90;47.30
8422;DHT22;4248;48.196;10.924;2023-02-08T03:09:15;-4.90;47.50
8422;DHT22;4248;48.196;10.924;2023-02-08T03:11:52;-4.90;47.70
8422;DHT22;4248;48.196;10.924;2023-02-08T03:14:42;-4.90;47.70
8422;DHT22;4248;48.196;10.924;2023-02-08T03:28:49;-5.00;47.80
8422;DHT22;4248;48.196;10.924;2023-02-08T03:31:24;-5.10;47.90
8422;DHT22;4248;48.196;10.924;2023-02-08T03:34:06;-5.10;48.10
8422;DHT22;4248;48.196;10.924;2023-02-08T03:36:41;-5.10;48.20
8422;DHT22;4248;48.196;10.924;2023-02-08T03:39:11;-5.10;48.40
8422;DHT22;4248;48.196;10.924;2023-02-08T03:41:39;-5.10;48.60
8422;DHT22;4248;48.196;10.924;2023-02-08T03:44:19;-5.10;48.60
8422;DHT22;4248;48.196;10.924;2023-02-08T03:46:51;-5.10;48.80
8422;DHT22;4248;48.196;10.924;2023-02-08T03:49:22;-5.10;48.90
8422;DHT22;4248;48.196;10.924;2023-02-08T03:51:49;-5.10;49.20
8422;DHT22;4248;48.196;10.924;2023-02-08T03:54:19;-5.10;49.30
8422;DHT22;4248;48.196;10.924;2023-02-08T03:57:11;-5.10;49.30
8422;DHT22;4248;48.196;10.924;2023-02-08T03:59:42;-5.10;49.30
8422;DHT22;4248;48.196;10.924;2023-02-08T04:02:15;-5.10;49.40
8422;DHT22;4248;48.196;10.924;2023-02-08T04:04:45;-5.10;49.40
8422;DHT22;4248;48.196;10.924;2023-02-08T04:07:12;-5.10;49.50
8422;DHT22;4248;48.196;10.924;2023-02-08T04:09:37;-5.10;49.60
8422;DHT22;4248;48.196;10.924;2023-02-08T04:12:03;-5.10;49.60
8422;DHT22;4248;48.196;10.924;2023-02-08T04:14:29;-5.10;49.70
8422;DHT22;4248;48.196;10.924;2023-02-08T04:16:55;-5.10;49.70
8422;DHT22;4248;48.196;10.924;2023-02-08T04:19:21;-5.10;49.80
8422;DHT22;4248;48.196;10.924;2023-02-08T04:21:46;-5.10;49.70
8422;DHT22;4248;48.196;10.924;2023-02-08T04:24:12;-5.10;49.70
8422;DHT22;4248;48.196;10.924;2023-02-08T04:26:37;-5.10;49.70
8422;DHT22;4248;48.196;10.924;2023-02-08T04:29:03;-5.10;49.70
8422;DHT22;4248;48.196;10.924;2023-02-08T04:31:29;-5.10;49.80
8422;DHT22;4248;48.196;10.924;2023-02-08T04:33:54;-5.20;49.90
8422;DHT22;4248;48.196;10.924;2023-02-08T04:36:20;-5.20;49.90
8422;DHT22;4248;48.196;10.924;2023-02-08T04:38:45;-5.20;50.00
8422;DHT22;4248;48.196;10.924;2023-02-08T04:41:11;-5.20;50.20
8422;DHT22;4248;48.196;10.924;2023-02-08T04:43:37;-5.20;50.40
8422;DHT22;4248;48.196;10.924;2023-02-08T04:46:03;-5.10;50.80
8422;DHT22;4248;48.196;10.924;2023-02-08T04:48:28;-5.10;50.80
8422;DHT22;4248;48.196;10.924;2023-02-08T04:50:55;-5.10;50.90
8422;DHT22;4248;48.196;10.924;2023-02-08T04:53:21;-5.10;51.10
8422;DHT22;4248;48.196;10.924;2023-02-08T04:55:47;-5.20;51.30
8422;DHT22;4248;48.196;10.924;2023-02-08T04:58:12;-5.10;51.30
8422;DHT22;4248;48.196;10.924;2023-02-08T05:00:38;-5.10;51.30
8422;DHT22;4248;48.196;10.924;2023-02-08T05:03:04;-5.10;51.40
8422;DHT22;4248;48.196;10.924;2023-02-08T05:05:30;-5.10;51.70
8422;DHT22;4248;48.196;10.924;2023-02-08T05:07:56;-5.10;51.80
8422;DHT22;4248;48.196;10.924;2023-02-08T05:10:21;-5.10;51.90
8422;DHT22;4248;48.196;10.924;2023-02-08T05:12:47;-5.10;52.00
8422;DHT22;4248;48.196;10.924;2023-02-08T05:15:13;-5.10;52.00
8422;DHT22;4248;48.196;10.924;2023-02-08T05:17:38;-5.10;52.40
8422;DHT22;4248;48.196;10.924;2023-02-08T05:20:05;-5.10;52.50
8422;DHT22;4248;48.196;10.924;2023-02-08T05:22:31;-5.10;52.50
8422;DHT22;4248;48.196;10.924;2023-02-08T05:24:57;-5.10;52.60
8422;DHT22;4248;48.196;10.924;2023-02-08T05:27:23;-5.10;52.50
8422;DHT22;4248;48.196;10.924;2023-02-08T05:29:48;-5.10;52.50
8422;DHT22;4248;48.196;10.924;2023-02-08T05:32:14;-5.10;52.50
8422;DHT22;4248;48.196;10.924;2023-02-08T05:34:39;-5.10;52.50
8422;DHT22;4248;48.196;10.924;2023-02-08T05:37:05;-5.10;52.50
8422;DHT22;4248;48.196;10.924;2023-02-08T05:39:31;-5.10;52.50
8422;DHT22;4248;48.196;10.924;2023-02-08T05:41:56;-5.10;52.50
8422;DHT22;4248;48.196;10.924;2023-02-08T05:44:22;-5.10;52.60
8422;DHT22;4248;48.196;10.924;2023-02-08T05:46:48;-5.20;52.70
8422;DHT22;4248;48.196;10.924;2023-02-08T05:49:13;-5.20;52.50
8422;DHT22;4248;48.196;10.924;2023-02-08T05:51:39;-5.10;52.80
8422;DHT22;4248;48.196;10.924;2023-02-08T05:54:05;-5.20;52.70
8422;DHT22;4248;48.196;10.924;2023-02-08T05:56:30;-5.20;52.70
8422;DHT22;4248;48.196;10.924;2023-02-08T05:58:59;-5.20;52.60
8422;DHT22;4248;48.196;10.924;2023-02-08T06:01:25;-5.20;52.90
8422;DHT22;4248;48.196;10.924;2023-02-08T06:03:51;-5.20;53.50
8422;DHT22;4248;48.196;10.924;2023-02-08T06:06:17;-5.20;53.60
8422;DHT22;4248;48.196;10.924;2023-02-08T06:08:42;-5.20;53.50
8422;DHT22;4248;48.196;10.924;2023-02-08T06:11:08;-5.20;53.40
8422;DHT22;4248;48.196;10.924;2023-02-08T06:13:34;-5.20;53.20
8422;DHT22;4248;48.196;10.924;2023-02-08T06:15:59;-5.20;53.30
8422;DHT22;4248;48.196;10.924;2023-02-08T06:18:25;-5.30;53.10
8422;DHT22;4248;48.196;10.924;2023-02-08T06:20:54;-5.30;53.20
8422;DHT22;4248;48.196;10.924;2023-02-08T06:23:21;-5.30;53.20
8422;DHT22;4248;48.196;10.924;2023-02-08T06:25:47;-5.30;53.00
8422;DHT22;4248;48.196;10.924;2023-02-08T06:28:12;-5.30;53.00
8422;DHT22;4248;48.196;10.924;2023-02-08T06:30:38;-5.30;53.00
8422;DHT22;4248;48.196;10.924;2023-02-08T06:33:04;-5.20;53.30
8422;DHT22;4248;48.196;10.924;2023-02-08T06:35:30;-5.30;53.20
8422;DHT22;4248;48.196;10.924;2023-02-08T06:37:55;-5.20;53.30
8422;DHT22;4248;48.196;10.924;2023-02-08T06:40:23;-5.20;53.00
8422;DHT22;4248;48.196;10.924;2023-02-08T06:42:48;-5.20;53.00
8422;DHT22;4248;48.196;10.924;2023-02-08T06:45:15;-5.20;52.70
8422;DHT22;4248;48.196;10.924;2023-02-08T06:47:40;-5.20;52.70
8422;DHT22;4248;48.196;10.924;2023-02-08T06:50:07;-5.20;52.70
8422;DHT22;4248;48.196;10.924;2023-02-08T06:52:32;-5.20;52.60
8422;DHT22;4248;48.196;10.924;2023-02-08T06:54:58;-5.20;52.70
8422;DHT22;4248;48.196;10.924;2023-02-08T06:57:23;-5.20;52.70
8422;DHT22;4248;48.196;10.924;2023-02-08T06:59:49;-5.20;52.50
8422;DHT22;4248;48.196;10.924;2023-02-08T07:02:17;-5.10;52.50
8422;DHT22;4248;48.196;10.924;2023-02-08T07:04:43;-5.10;52.60
8422;DHT22;4248;48.196;10.924;2023-02-08T07:07:11;-5.10;52.50
8422;DHT22;4248;48.196;10.924;2023-02-08T07:09:36;-5.00;52.60
8422;DHT22;4248;48.196;10.924;2023-02-08T07:12:03;-5.00;52.70
8422;DHT22;4248;48.196;10.924;2023-02-08T07:14:33;-4.90;52.70
8422;DHT22;4248;48.196;10.924;2023-02-08T07:17:00;-4.90;52.70
8422;DHT22;4248;48.196;10.924;2023-02-08T07:19:26;-4.80;52.80
8422;DHT22;4248;48.196;10.924;2023-02-08T07:21:52;-4.80;53.00
8422;DHT22;4248;48.196;10.924;2023-02-08T07:24:17;-4.70;53.00
8422;DHT22;4248;48.196;10.924;2023-02-08T07:26:43;-4.70;53.20
8422;DHT22;4248;48.196;10.924;2023-02-08T07:29:09;-4.60;53.20
8422;DHT22;4248;48.196;10.924;2023-02-08T07:31:34;-4.60;53.10
8422;DHT22;4248;48.196;10.924;2023-02-08T07:34:00;-4.60;53.30
8422;DHT22;4248;48.196;10.924;2023-02-08T07:36:26;-4.60;53.30
8422;DHT22;4248;48.196;10.924;2023-02-08T07:38:51;-4.50;53.40
8422;DHT22;4248;48.196;10.924;2023-02-08T07:41:17;-4.50;53.30
8422;DHT22;4248;48.196;10.924;2023-02-08T07:43:42;-4.40;53.30
8422;DHT22;4248;48.196;10.924;2023-02-08T07:46:14;-4.40;53.40
8422;DHT22;4248;48.196;10.924;2023-02-08T07:48:40;-4.40;53.50
8422;DHT22;4248;48.196;10.924;2023-02-08T07:51:06;-4.30;53.30
8422;DHT22;4248;48.196;10.924;2023-02-08T07:53:32;-4.30;53.30
8422;DHT22;4248;48.196;10.924;2023-02-08T07:55:58;-4.20;53.30
8422;DHT22;4248;48.196;10.924;2023-02-08T07:58:25;-4.20;53.30
8422;DHT22;4248;48.196;10.924;2023-02-08T08:00:51;-4.10;53.40
8422;DHT22;4248;48.196;10.924;2023-02-08T08:03:16;-4.10;53.40
8422;DHT22;4248;48.196;10.924;2023-02-08T08:05:42;-4.00;53.50
8422;DHT22;4248;48.196;10.924;2023-02-08T08:08:09;-3.90;53.50
8422;DHT22;4248;48.196;10.924;2023-02-08T08:10:35;-3.90;53.20
8422;DHT22;4248;48.196;10.924;2023-02-08T08:13:01;-3.80;52.90
8422;DHT22;4248;48.196;10.924;2023-02-08T08:15:27;-3.80;52.90
8422;DHT22;4248;48.196;10.924;2023-02-08T08:17:53;-3.70;52.80
8422;DHT22;4248;48.196;10.924;2023-02-08T08:20:18;-3.70;52.70
8422;DHT22;4248;48.196;10.924;2023-02-08T08:22:44;-3.70;52.60
8422;DHT22;4248;48.196;10.924;2023-02-08T08:25:10;-3.60;52.50
8422;DHT22;4248;48.196;10.924;2023-02-08T08:27:35;-3.50;52.30
8422;DHT22;4248;48.196;10.924;2023-02-08T08:30:03;-3.50;52.30
8422;DHT22;4248;48.196;10.924;2023-02-08T08:32:30;-3.40;52.10
8422;DHT22;4248;48.196;10.924;2023-02-08T08:34:55;-3.40;51.90
8422;DHT22;4248;48.196;10.924;2023-02-08T08:37:21;-3.30;51.80
8422;DHT22;4248;48.196;10.924;2023-02-08T08:39:47;-3.30;51.60
8422;DHT22;4248;48.196;10.924;2023-02-08T08:42:12;-3.10;51.60
8422;DHT22;4248;48.196;10.924;2023-02-08T08:44:38;-3.00;51.20
8422;DHT22;4248;48.196;10.924;2023-02-08T08:47:04;-2.90;51.20
8422;DHT22;4248;48.196;10.924;2023-02-08T08:49:29;-2.90;50.90
8422;DHT22;4248;48.196;10.924;2023-02-08T08:51:55;-2.80;50.60
8422;DHT22;4248;48.196;10.924;2023-02-08T08:54:22;-2.80;50.20
8422;DHT22;4248;48.196;10.924;2023-02-08T08:56:47;-2.70;50.20
8422;DHT22;4248;48.196;10.924;2023-02-08T08:59:13;-2.70;50.20
8422;DHT22;4248;48.196;10.924;2023-02-08T09:01:39;-2.60;50.10
8422;DHT22;4248;48.196;10.924;2023-02-08T09:04:07;-2.50;50.00
8422;DHT22;4248;48.196;10.924;2023-02-08T09:06:33;-2.50;49.80
8422;DHT22;4248;48.196;10.924;2023-02-08T09:08:59;-2.40;49.50
8422;DHT22;4248;48.196;10.924;2023-02-08T09:11:25;-2.30;49.40
8422;DHT22;4248;48.196;10.924;2023-02-08T09:13:51;-2.20;49.30
8422;DHT22;4248;48.196;10.924;2023-02-08T09:16:21;-2.10;49.20
8422;DHT22;4248;48.196;10.924;2023-02-08T09:18:47;-2.10;48.90
8422;DHT22;4248;48.196;10.924;2023-02-08T09:21:18;-1.80;49.20
8422;DHT22;4248;48.196;10.924;2023-02-08T09:23:44;-2.00;48.70
8422;DHT22;4248;48.196;10.924;2023-02-08T09:26:13;-2.00;47.80
8422;DHT22;4248;48.196;10.924;2023-02-08T09:28:39;-2.00;47.90
8422;DHT22;4248;48.196;10.924;2023-02-08T09:33:37;-1.80;47.60
8422;DHT22;4248;48.196;10.924;2023-02-08T09:36:03;-1.70;47.40
8422;DHT22;4248;48.196;10.924;2023-02-08T09:38:30;-1.70;47.20
8422;DHT22;4248;48.196;10.924;2023-02-08T09:44:01;-1.70;46.20
8422;DHT22;4248;48.196;10.924;2023-02-08T09:46:35;-1.60;46.20
8422;DHT22;4248;48.196;10.924;2023-02-08T09:49:04;-1.50;46.10
8422;DHT22;4248;48.196;10.924;2023-02-08T09:51:34;-1.40;45.80
8422;DHT22;4248;48.196;10.924;2023-02-08T09:56:40;-1.20;45.60
8422;DHT22;4248;48.196;10.924;2023-02-08T09:59:18;-1.20;45.00
8422;DHT22;4248;48.196;10.924;2023-02-08T10:01:47;-1.30;44.50
8422;DHT22;4248;48.196;10.924;2023-02-08T10:04:16;-1.30;44.40
8422;DHT22;4248;48.196;10.924;2023-02-08T10:06:44;-1.20;44.40
8422;DHT22;4248;48.196;10.924;2023-02-08T10:09:13;-1.10;44.40
8422;DHT22;4248;48.196;10.924;2023-02-08T10:11:46;-1.10;44.30
8422;DHT22;4248;48.196;10.924;2023-02-08T10:22:32;-0.80;43.30
8422;DHT22;4248;48.196;10.924;2023-02-08T10:27:47;-0.80;43.30
8422;DHT22;4248;48.196;10.924;2023-02-08T10:33:32;-0.80;43.40
8422;DHT22;4248;48.196;10.924;2023-02-08T10:36:04;-0.80;43.30
8422;DHT22;4248;48.196;10.924;2023-02-08T10:38:38;-0.80;43.30
8422;DHT22;4248;48.196;10.924;2023-02-08T10:41:05;-0.70;43.40
8422;DHT22;4248;48.196;10.924;2023-02-08T10:43:43;-0.70;43.50
8422;DHT22;4248;48.196;10.924;2023-02-08T10:46:34;-0.60;43.60
8422;DHT22;4248;48.196;10.924;2023-02-08T10:51:45;-0.50;43.40
8422;DHT22;4248;48.196;10.924;2023-02-08T10:54:12;-0.50;43.60
8422;DHT22;4248;48.196;10.924;2023-02-08T10:56:53;-0.40;43.20
8422;DHT22;4248;48.196;10.924;2023-02-08T10:59:24;-0.40;43.30
8422;DHT22;4248;48.196;10.924;2023-02-08T11:01:52;-0.30;43.20
8422;DHT22;4248;48.196;10.924;2023-02-08T11:04:18;-0.30;43.00
8422;DHT22;4248;48.196;10.924;2023-02-08T11:06:45;-0.30;42.80
8422;DHT22;4248;48.196;10.924;2023-02-08T11:09:23;-0.30;42.90
8422;DHT22;4248;48.196;10.924;2023-02-08T11:11:50;-0.30;42.70
8422;DHT22;4248;48.196;10.924;2023-02-08T11:14:24;-0.40;42.30
8422;DHT22;4248;48.196;10.924;2023-02-08T11:16:55;-0.40;42.30
8422;DHT22;4248;48.196;10.924;2023-02-08T11:21:53;-0.20;42.50
8422;DHT22;4248;48.196;10.924;2023-02-08T11:24:31;-0.20;42.10
8422;DHT22;4248;48.196;10.924;2023-02-08T11:27:18;-0.10;41.90
8422;DHT22;4248;48.196;10.924;2023-02-08T11:32:37;0.10;41.20
8422;DHT22;4248;48.196;10.924;2023-02-08T11:35:22;0.10;41.30
8422;DHT22;4248;48.196;10.924;2023-02-08T11:37:56;0.20;41.10
8422;DHT22;4248;48.196;10.924;2023-02-08T11:40:33;0.20;40.60
8422;DHT22;4248;48.196;10.924;2023-02-08T11:42:59;0.20;40.60
8422;DHT22;4248;48.196;10.924;2023-02-08T11:45:31;0.30;40.50
8422;DHT22;4248;48.196;10.924;2023-02-08T11:47:58;0.30;40.10
8422;DHT22;4248;48.196;10.924;2023-02-08T11:50:28;0.20;39.40
8422;DHT22;4248;48.196;10.924;2023-02-08T11:52:58;0.30;39.50
8422;DHT22;4248;48.196;10.924;2023-02-08T11:55:27;0.40;39.70
8422;DHT22;4248;48.196;10.924;2023-02-08T11:58:04;0.50;39.60
8422;DHT22;4248;48.196;10.924;2023-02-08T12:00:33;0.60;39.40
8422;DHT22;4248;48.196;10.924;2023-02-08T12:03:02;0.60;39.30
8422;DHT22;4248;48.196;10.924;2023-02-08T12:08:27;0.70;39.10
8422;DHT22;4248;48.196;10.924;2023-02-08T12:11:06;0.70;38.80
8422;DHT22;4248;48.196;10.924;2023-02-08T12:13:50;0.70;39.10
8422;DHT22;4248;48.196;10.924;2023-02-08T12:21:44;0.70;38.90
8422;DHT22;4248;48.196;10.924;2023-02-08T12:24:25;0.60;38.80
8422;DHT22;4248;48.196;10.924;2023-02-08T12:38:11;0.80;38.70
8422;DHT22;4248;48.196;10.924;2023-02-08T12:43:52;0.60;39.10
8422;DHT22;4248;48.196;10.924;2023-02-08T12:49:13;0.70;39.60
8422;DHT22;4248;48.196;10.924;2023-02-08T12:51:57;0.80;39.60
8422;DHT22;4248;48.196;10.924;2023-02-08T12:54:39;0.90;39.50
8422;DHT22;4248;48.196;10.924;2023-02-08T12:57:10;0.80;38.90
8422;DHT22;4248;48.196;10.924;2023-02-08T12:59:48;0.80;39.10
8422;DHT22;4248;48.196;10.924;2023-02-08T13:02:31;0.80;39.20
8422;DHT22;4248;48.196;10.924;2023-02-08T13:05:02;0.70;39.30
8422;DHT22;4248;48.196;10.924;2023-02-08T13:07:32;0.80;39.50
8422;DHT22;4248;48.196;10.924;2023-02-08T13:10:01;0.70;39.40
8422;DHT22;4248;48.196;10.924;2023-02-08T13:12:31;0.70;39.70
8422;DHT22;4248;48.196;10.924;2023-02-08T13:15:19;0.60;40.70
8422;DHT22;4248;48.196;10.924;2023-02-08T13:17:58;0.70;39.40
8422;DHT22;4248;48.196;10.924;2023-02-08T13:20:44;0.70;40.30
8422;DHT22;4248;48.196;10.924;2023-02-08T13:23:35;0.60;39.10
8422;DHT22;4248;48.196;10.924;2023-02-08T13:26:21;0.60;39.30
8422;DHT22;4248;48.196;10.924;2023-02-08T13:28:56;0.60;39.40
8422;DHT22;4248;48.196;10.924;2023-02-08T13:31:32;0.70;39.20
8422;DHT22;4248;48.196;10.924;2023-02-08T13:34:02;0.70;39.10
8422;DHT22;4248;48.196;10.924;2023-02-08T13:36:38;0.60;39.00
8422;DHT22;4248;48.196;10.924;2023-02-08T13:39:08;0.60;39.70
8422;DHT22;4248;48.196;10.924;2023-02-08T13:41:34;0.70;39.40
8422;DHT22;4248;48.196;10.924;2023-02-08T13:44:04;0.60;39.30
8422;DHT22;4248;48.196;10.924;2023-02-08T13:46:56;0.60;39.50
8422;DHT22;4248;48.196;10.924;2023-02-08T14:03:30;0.50;39.70
8422;DHT22;4248;48.196;10.924;2023-02-08T14:05:59;0.60;39.80
8422;DHT22;4248;48.196;10.924;2023-02-08T14:11:09;0.50;40.50
8422;DHT22;4248;48.196;10.924;2023-02-08T14:13:50;0.50;39.30
8422;DHT22;4248;48.196;10.924;2023-02-08T14:24:42;0.50;39.50
8422;DHT22;4248;48.196;10.924;2023-02-08T14:32:53;0.50;39.90
8422;DHT22;4248;48.196;10.924;2023-02-08T14:35:23;0.40;40.10
8422;DHT22;4248;48.196;10.924;2023-02-08T14:38:29;0.40;40.00
8422;DHT22;4248;48.196;10.924;2023-02-08T14:40:52;0.30;40.30
8422;DHT22;4248;48.196;10.924;2023-02-08T14:45:48;0.30;40.70
8422;DHT22;4248;48.196;10.924;2023-02-08T14:48:34;0.20;40.80
8422;DHT22;4248;48.196;10.924;2023-02-08T14:56:22;0.30;41.10
8422;DHT22;4248;48.196;10.924;2023-02-08T14:58:53;0.30;41.10
8422;DHT22;4248;48.196;10.924;2023-02-08T15:01:27;0.30;41.10
8422;DHT22;4248;48.196;10.924;2023-02-08T15:03:58;0.20;40.90
8422;DHT22;4248;48.196;10.924;2023-02-08T15:09:17;0.20;41.00
8422;DHT22;4248;48.196;10.924;2023-02-08T15:11:48;0.20;41.20
8422;DHT22;4248;48.196;10.924;2023-02-08T15:14:18;0.10;41.30
8422;DHT22;4248;48.196;10.924;2023-02-08T15:16:45;0.00;41.40
8422;DHT22;4248;48.196;10.924;2023-02-08T15:19:27;0.00;41.60
8422;DHT22;4248;48.196;10.924;2023-02-08T15:21:54;0.00;41.70
8422;DHT22;4248;48.196;10.924;2023-02-08T15:24:22;-0.10;42.20
8422;DHT22;4248;48.196;10.924;2023-02-08T15:26:55;-0.10;42.40
8422;DHT22;4248;48.196;10.924;2023-02-08T15:29:25;-0.10;42.10
8422;DHT22;4248;48.196;10.924;2023-02-08T15:31:52;-0.20;42.20
8422;DHT22;4248;48.196;10.924;2023-02-08T15:34:20;-0.20;42.00
8422;DHT22;4248;48.196;10.924;2023-02-08T15:36:54;-0.30;42.10
8422;DHT22;4248;48.196;10.924;2023-02-08T15:39:31;-0.30;42.20
8422;DHT22;4248;48.196;10.924;2023-02-08T15:41:58;-0.30;42.20
8422;DHT22;4248;48.196;10.924;2023-02-08T15:44:26;-0.40;42.30
8422;DHT22;4248;48.196;10.924;2023-02-08T15:46:56;-0.40;42.50
8422;DHT22;4248;48.196;10.924;2023-02-08T15:49:50;-0.40;43.00
8422;DHT22;4248;48.196;10.924;2023-02-08T15:52:21;-0.40;43.30
8422;DHT22;4248;48.196;10.924;2023-02-08T15:54:47;-0.40;43.70
8422;DHT22;4248;48.196;10.924;2023-02-08T16:00:11;-0.60;43.50
8422;DHT22;4248;48.196;10.924;2023-02-08T16:02:41;-0.60;43.50
8422;DHT22;4248;48.196;10.924;2023-02-08T16:05:20;-0.70;43.40
8422;DHT22;4248;48.196;10.924;2023-02-08T16:07:46;-0.70;43.60
8422;DHT22;4248;48.196;10.924;2023-02-08T16:10:34;-0.80;43.80
8422;DHT22;4248;48.196;10.924;2023-02-08T16:13:05;-0.80;43.80
8422;DHT22;4248;48.196;10.924;2023-02-08T16:15:44;-0.80;43.80
8422;DHT22;4248;48.196;10.924;2023-02-08T16:18:34;-0.90;44.00
8422;DHT22;4248;48.196;10.924;2023-02-08T16:21:03;-0.90;44.30
8422;DHT22;4248;48.196;10.924;2023-02-08T16:23:33;-0.90;44.60
8422;DHT22;4248;48.196;10.924;2023-02-08T16:26:18;-1.00;44.50
8422;DHT22;4248;48.196;10.924;2023-02-08T16:28:51;-1.10;44.50
8422;DHT22;4248;48.196;10.924;2023-02-08T16:31:23;-1.10;44.50
8422;DHT22;4248;48.196;10.924;2023-02-08T16:34:05;-1.20;44.70
8422;DHT22;4248;48.196;10.924;2023-02-08T16:36:34;-1.20;45.00
8422;DHT22;4248;48.196;10.924;2023-02-08T16:44:25;-1.20;45.30
8422;DHT22;4248;48.196;10.924;2023-02-08T16:46:51;-1.30;45.50
8422;DHT22;4248;48.196;10.924;2023-02-08T16:49:17;-1.30;45.60
8422;DHT22;4248;48.196;10.924;2023-02-08T16:51:43;-1.30;45.60
8422;DHT22;4248;48.196;10.924;2023-02-08T16:54:18;-1.30;45.80
8422;DHT22;4248;48.196;10.924;2023-02-08T16:56:46;-1.30;46.10
8422;DHT22;4248;48.196;10.924;2023-02-08T16:59:14;-1.40;46.00
8422;DHT22;4248;48.196;10.924;2023-02-08T17:01:41;-1.40;46.10
8422;DHT22;4248;48.196;10.924;2023-02-08T17:04:11;-1.40;46.30
8422;DHT22;4248;48.196;10.924;2023-02-08T17:06:40;-1.40;46.60
8422;DHT22;4248;48.196;10.924;2023-02-08T17:09:07;-1.40;46.80
8422;DHT22;4248;48.196;10.924;2023-02-08T17:11:34;-1.50;47.00
8422;DHT22;4248;48.196;10.924;2023-02-08T17:14:00;-1.50;47.20
8422;DHT22;4248;48.196;10.924;2023-02-08T17:16:29;-1.40;47.40
8422;DHT22;4248;48.196;10.924;2023-02-08T17:18:56;-1.40;47.50
8422;DHT22;4248;48.196;10.924;2023-02-08T17:21:22;-1.40;47.60
8422;DHT22;4248;48.196;10.924;2023-02-08T17:23:48;-1.50;47.40
8422;DHT22;4248;48.196;10.924;2023-02-08T17:26:17;-1.50;47.40
8422;DHT22;4248;48.196;10.924;2023-02-08T17:28:44;-1.50;47.20
8422;DHT22;4248;48.196;10.924;2023-02-08T17:31:12;-1.50;47.00
8422;DHT22;4248;48.196;10.924;2023-02-08T17:33:38;-1.50;46.80
8422;DHT22;4248;48.196;10.924;2023-02-08T17:36:07;-1.50;46.80
8422;DHT22;4248;48.196;10.924;2023-02-08T17:38:33;-1.50;46.80
8422;DHT22;4248;48.196;10.924;2023-02-08T17:41:13;-1.60;46.50
8422;DHT22;4248;48.196;10.924;2023-02-08T17:43:39;-1.60;46.50
8422;DHT22;4248;48.196;10.924;2023-02-08T17:46:09;-1.60;46.40
8422;DHT22;4248;48.196;10.924;2023-02-08T17:48:35;-1.60;46.30
8422;DHT22;4248;48.196;10.924;2023-02-08T17:51:01;-1.70;46.30
8422;DHT22;4248;48.196;10.924;2023-02-08T17:53:26;-1.70;46.30
8422;DHT22;4248;48.196;10.924;2023-02-08T17:55:52;-1.70;46.20
8422;DHT22;4248;48.196;10.924;2023-02-08T17:58:17;-1.70;46.20
8422;DHT22;4248;48.196;10.924;2023-02-08T18:00:43;-1.70;46.30
8422;DHT22;4248;48.196;10.924;2023-02-08T18:03:09;-1.70;46.20
8422;DHT22;4248;48.196;10.924;2023-02-08T18:05:34;-1.80;46.20
8422;DHT22;4248;48.196;10.924;2023-02-08T18:08:01;-1.80;46.20
8422;DHT22;4248;48.196;10.924;2023-02-08T18:10:26;-1.60;46.40
8422;DHT22;4248;48.196;10.924;2023-02-08T18:12:52;-1.80;46.20
8422;DHT22;4248;48.196;10.924;2023-02-08T18:15:19;-1.80;46.30
8422;DHT22;4248;48.196;10.924;2023-02-08T18:17:45;-1.80;46.40
8422;DHT22;4248;48.196;10.924;2023-02-08T18:20:13;-1.90;46.30
8422;DHT22;4248;48.196;10.924;2023-02-08T18:22:40;-1.90;46.30
8422;DHT22;4248;48.196;10.924;2023-02-08T18:25:06;-1.90;46.40
8422;DHT22;4248;48.196;10.924;2023-02-08T18:27:32;-1.90;46.40
8422;DHT22;4248;48.196;10.924;2023-02-08T18:29:58;-2.00;46.30
8422;DHT22;4248;48.196;10.924;2023-02-08T18:32:24;-2.00;46.30